Ceylon — 9VMU6 — position and weather

sailwx.info

Track history (hours):
 
Tides and Currents Weather Stations Pressure Air Temp Water Temp Dewpoint Dewpoint Depression Visibility Wind Speed Wind Dir Waves Ship Positions

Ceylon

Last reported at 2016-May-21 08:33 UTC. Time now 2016-May-29 09:40 UTC.
Position S 00°12' W 047°17'.
Warning: this ship's position is 8 days out of date.

Length 180 m; draft 7.1 m.

Type: Tanker. MMSI: 563847000.

Date/timePositionNaut miles runAvg speedWind from/ knotsBaromVisibWave heightAir tempDewpointWater temp
2016-May-21 08:33S 00°12' W 047°17'1111.2
2016-May-21 07:34S 00°14' W 047°28'1212.2
2016-May-21 06:34S 00°21' W 047°38'1111.1
2016-May-21 05:33S 00°27' W 047°47'1514.5
2016-May-21 04:33S 00°31' W 048°01'1615.5
2016-May-21 03:33S 00°41' W 048°13'1413.9
2016-May-21 02:33S 00°53' W 048°20'1211.8
2016-May-21 01:33S 01°03' W 048°26'1010.1
2016-May-21 00:33S 01°13' W 048°29'9 8.7
2016-May-20 23:33S 01°21' W 048°29'3 3.0
2016-May-20 22:34S 01°24' W 048°30'0 0.0
2016-May-20 21:32S 01°24' W 048°30'0 0.0
2016-May-20 20:32S 01°24' W 048°30'0 0.0
2016-May-20 19:32S 01°24' W 048°30'0 0.2
2016-May-20 18:32S 01°24' W 048°30'0 0.2
2016-May-20 17:33S 01°24' W 048°30'0 0.0
2016-May-20 16:33S 01°24' W 048°30'0 0.0
2016-May-20 15:33S 01°24' W 048°30'0 0.0
2016-May-20 14:33S 01°24' W 048°30'0 0.0
2016-May-20 13:33S 01°24' W 048°30'0 0.0
2016-May-20 12:33S 01°24' W 048°30'0 0.0
2016-May-20 11:33S 01°24' W 048°30'0 0.0
2016-May-20 10:33S 01°24' W 048°30'0 0.0
2016-May-20 09:33S 01°24' W 048°30'0 0.0
2016-May-20 08:33S 01°24' W 048°30'0 0.0
2016-May-20 07:33S 01°24' W 048°30'0 0.0
2016-May-20 06:33S 01°24' W 048°30'0 0.2
2016-May-20 05:33S 01°24' W 048°30'0 0.2
2016-May-20 04:31S 01°24' W 048°30'0 0.0
2016-May-20 03:33S 01°24' W 048°30'0 0.0
2016-May-20 02:33S 01°24' W 048°30'0 0.0
2016-May-20 01:33S 01°24' W 048°30'0 0.3
2016-May-20 00:33S 01°24' W 048°30'0 0.2
2016-May-19 23:33S 01°24' W 048°30'1111.4
2016-May-19 22:33S 01°13' W 048°29'1312.9
2016-May-19 21:33S 01°00' W 048°26'1413.6
2016-May-19 20:33S 00°49' W 048°18'1313.3
2016-May-19 19:33S 00°38' W 048°11'1313.1
2016-May-19 18:34S 00°30' W 048°00'1212.3
2016-May-19 17:33S 00°27' W 047°48'8 8.4
2016-May-19 16:33S 00°23' W 047°41'7 6.9
2016-May-19 15:34S 00°20' W 047°35'3 2.5
2016-May-19 14:34S 00°18' W 047°33'4 4.5
2016-May-19 13:33S 00°15' W 047°29'7 6.8
2016-May-19 12:33S 00°12' W 047°23'7 7.4
2016-May-19 11:33S 00°12' W 047°16'3411.1
2016-May-19 08:32S 00°13' W 046°42'1411.6
2016-May-19 07:22S 00°16' W 046°29'179 8.6
2016-May-18 10:33S 02°03' W 044°06'1413.7
2016-May-18 09:33S 02°15' W 044°14'1212.2
2016-May-18 08:33S 02°25' W 044°20'8 8.1
2016-May-18 07:33S 02°33' W 044°23'2 1.8
2016-May-18 06:30S 02°35' W 044°22'0 0.0
2016-May-16 15:21S 02°35' W 044°22'1 0.7
2016-May-16 14:33S 02°35' W 044°22'7 6.9
2016-May-16 13:33S 02°28' W 044°22'5 5.0
2016-May-16 12:33S 02°24' W 044°20'0 0.4
2016-May-16 11:29S 02°23' W 044°20'0 0.0
2016-May-16 10:29S 02°23' W 044°20'0 0.0
2016-May-16 09:23S 02°23' W 044°20'0 0.1
2016-May-16 08:20S 02°23' W 044°20'0 0.2
2016-May-16 07:32S 02°23' W 044°20'0 0.0
2016-May-16 06:29S 02°23' W 044°20'0 0.0
2016-May-16 05:32S 02°23' W 044°20'0 0.0
2016-May-16 04:29S 02°23' W 044°20'0 0.0
2016-May-16 03:32S 02°23' W 044°20'0 0.0
2016-May-16 02:32S 02°23' W 044°20'0 0.0
2016-May-16 01:29S 02°23' W 044°20'0 0.2
2016-May-16 00:32S 02°23' W 044°20'0 0.1
2016-May-15 23:23S 02°23' W 044°20'0 0.0
2016-May-15 22:29S 02°23' W 044°20'0 0.0
2016-May-15 21:29S 02°23' W 044°20'0 0.0
2016-May-15 20:32S 02°23' W 044°20'0 0.1
2016-May-15 19:26S 02°23' W 044°20'0 0.2
2016-May-15 18:29S 02°23' W 044°20'0 0.0
2016-May-15 17:29S 02°23' W 044°20'0 0.0
2016-May-15 16:32S 02°23' W 044°20'0 0.0
2016-May-15 15:29S 02°23' W 044°20'0 0.1
2016-May-15 14:29S 02°23' W 044°20'0 0.1
2016-May-15 13:32S 02°23' W 044°20'0 0.1
2016-May-15 12:32S 02°23' W 044°20'0 0.1
2016-May-15 11:29S 02°23' W 044°20'0 0.0
2016-May-15 10:20S 02°23' W 044°20'0 0.0
2016-May-15 09:32S 02°23' W 044°20'0 0.1
2016-May-15 08:32S 02°23' W 044°20'0 0.1
2016-May-15 07:23S 02°23' W 044°20'0 0.2
2016-May-15 06:29S 02°23' W 044°20'0 0.0
2016-May-15 05:32S 02°23' W 044°20'0 0.0
2016-May-15 04:23S 02°23' W 044°20'0 0.0
2016-May-15 03:29S 02°23' W 044°20'0 0.0
2016-May-15 02:32S 02°23' W 044°20'0 0.0
2016-May-15 01:32S 02°23' W 044°20'0 0.0
2016-May-15 00:32S 02°23' W 044°20'0 0.2
2016-May-14 23:29S 02°23' W 044°20'0 0.1
2016-May-14 22:32S 02°23' W 044°20'0 0.0
2016-May-14 21:32S 02°23' W 044°20'0 0.0
2016-May-14 20:26S 02°23' W 044°20'0 0.1
2016-May-14 19:32S 02°23' W 044°20'0 0.2
2016-May-14 18:29S 02°23' W 044°20'0 0.1
2016-May-14 17:29S 02°23' W 044°20'0 0.0
2016-May-14 16:32S 02°23' W 044°20'0 0.0
2016-May-14 15:29S 02°23' W 044°20'0 0.0
2016-May-14 14:32S 02°23' W 044°20'0 0.0
2016-May-14 13:32S 02°23' W 044°20'0 0.1
2016-May-14 12:32S 02°23' W 044°20'0 0.1
2016-May-14 11:32S 02°23' W 044°20'0 0.1
2016-May-14 10:26S 02°23' W 044°20'0 0.0
2016-May-14 09:29S 02°23' W 044°20'0 0.0
2016-May-14 08:32S 02°23' W 044°20'0 0.0
2016-May-14 07:32S 02°23' W 044°20'0 0.1
2016-May-14 06:32S 02°23' W 044°20'0 0.2
2016-May-14 05:32S 02°23' W 044°20'0 0.1
2016-May-14 04:32S 02°23' W 044°20'0 0.0
2016-May-14 03:29S 02°23' W 044°20'0 0.0
2016-May-14 02:29S 02°23' W 044°20'0 0.0
2016-May-14 01:29S 02°23' W 044°20'0 0.0
2016-May-14 00:23S 02°23' W 044°20'0 0.0
2016-May-13 23:32S 02°23' W 044°20'0 0.2
2016-May-13 22:32S 02°23' W 044°20'0 0.0
2016-May-13 21:32S 02°23' W 044°20'0 0.0
2016-May-13 20:23S 02°23' W 044°20'0 0.0
2016-May-13 19:32S 02°23' W 044°20'0 0.1
2016-May-13 18:29S 02°23' W 044°20'0 0.2
2016-May-13 17:29S 02°23' W 044°20'0 0.1
2016-May-13 16:26S 02°23' W 044°20'0 0.0
2016-May-13 15:32S 02°23' W 044°20'0 0.0
2016-May-13 14:29S 02°23' W 044°20'0 0.0
2016-May-13 13:32S 02°23' W 044°20'0 0.0
2016-May-13 12:32S 02°23' W 044°20'0 0.0
2016-May-13 11:32S 02°23' W 044°20'0 0.0
2016-May-13 10:32S 02°23' W 044°20'0 0.2
2016-May-13 09:32S 02°23' W 044°20'0 0.0
2016-May-13 08:32S 02°23' W 044°20'0 0.0
2016-May-13 07:29S 02°23' W 044°20'0 0.0
2016-May-13 06:32S 02°23' W 044°20'0 0.0
2016-May-13 05:29S 02°23' W 044°20'0 0.3
2016-May-13 04:32S 02°23' W 044°21'0 0.0
2016-May-13 03:29S 02°23' W 044°21'0 0.0
2016-May-13 02:32S 02°23' W 044°20'0 0.0
2016-May-13 01:23S 02°23' W 044°20'0 0.0
2016-May-13 00:26S 02°23' W 044°20'0 0.0
2016-May-12 23:29S 02°23' W 044°20'0 0.1
2016-May-12 22:33S 02°23' W 044°21'0 0.2
2016-May-12 21:33S 02°23' W 044°20'5 5.0
2016-May-12 20:34S 02°19' W 044°17'1110.4
2016-May-12 19:28S 02°10' W 044°11'  
Track history (hours):
 
Tides and Currents Weather Stations Pressure Air Temp Water Temp Dewpoint Dewpoint Depression Visibility Wind Speed Wind Dir Waves Ship Positions

Ceylon

Last reported at 2016-May-21 08:33 UTC. Time now 2016-May-29 09:40 UTC.
Position S 00°12' W 047°17'.
Warning: this ship's position is 8 days out of date.

Length 180 m; draft 7.1 m.

Type: Tanker. MMSI: 563847000.

Date/timePositionNaut miles runAvg speedWind from/ knotsBaromVisibWave heightAir tempDewpointWater temp
2016-May-21 08:33S 00°12' W 047°17'1111.2
2016-May-21 07:34S 00°14' W 047°28'1212.2
2016-May-21 06:34S 00°21' W 047°38'1111.1
2016-May-21 05:33S 00°27' W 047°47'1514.5
2016-May-21 04:33S 00°31' W 048°01'1615.5
2016-May-21 03:33S 00°41' W 048°13'1413.9
2016-May-21 02:33S 00°53' W 048°20'1211.8
2016-May-21 01:33S 01°03' W 048°26'1010.1
2016-May-21 00:33S 01°13' W 048°29'9 8.7
2016-May-20 23:33S 01°21' W 048°29'3 3.0
2016-May-20 22:34S 01°24' W 048°30'0 0.0
2016-May-20 21:32S 01°24' W 048°30'0 0.0
2016-May-20 20:32S 01°24' W 048°30'0 0.0
2016-May-20 19:32S 01°24' W 048°30'0 0.2
2016-May-20 18:32S 01°24' W 048°30'0 0.2
2016-May-20 17:33S 01°24' W 048°30'0 0.0
2016-May-20 16:33S 01°24' W 048°30'0 0.0
2016-May-20 15:33S 01°24' W 048°30'0 0.0
2016-May-20 14:33S 01°24' W 048°30'0 0.0
2016-May-20 13:33S 01°24' W 048°30'0 0.0
2016-May-20 12:33S 01°24' W 048°30'0 0.0
2016-May-20 11:33S 01°24' W 048°30'0 0.0
2016-May-20 10:33S 01°24' W 048°30'0 0.0
2016-May-20 09:33S 01°24' W 048°30'0 0.0
2016-May-20 08:33S 01°24' W 048°30'0 0.0
2016-May-20 07:33S 01°24' W 048°30'0 0.0
2016-May-20 06:33S 01°24' W 048°30'0 0.2
2016-May-20 05:33S 01°24' W 048°30'0 0.2
2016-May-20 04:31S 01°24' W 048°30'0 0.0
2016-May-20 03:33S 01°24' W 048°30'0 0.0
2016-May-20 02:33S 01°24' W 048°30'0 0.0
2016-May-20 01:33S 01°24' W 048°30'0 0.3
2016-May-20 00:33S 01°24' W 048°30'0 0.2
2016-May-19 23:33S 01°24' W 048°30'1111.4
2016-May-19 22:33S 01°13' W 048°29'1312.9
2016-May-19 21:33S 01°00' W 048°26'1413.6
2016-May-19 20:33S 00°49' W 048°18'1313.3
2016-May-19 19:33S 00°38' W 048°11'1313.1
2016-May-19 18:34S 00°30' W 048°00'1212.3
2016-May-19 17:33S 00°27' W 047°48'8 8.4
2016-May-19 16:33S 00°23' W 047°41'7 6.9
2016-May-19 15:34S 00°20' W 047°35'3 2.5
2016-May-19 14:34S 00°18' W 047°33'4 4.5
2016-May-19 13:33S 00°15' W 047°29'7 6.8
2016-May-19 12:33S 00°12' W 047°23'7 7.4
2016-May-19 11:33S 00°12' W 047°16'3411.1
2016-May-19 08:32S 00°13' W 046°42'1411.6
2016-May-19 07:22S 00°16' W 046°29'179 8.6
2016-May-18 10:33S 02°03' W 044°06'1413.7
2016-May-18 09:33S 02°15' W 044°14'1212.2
2016-May-18 08:33S 02°25' W 044°20'8 8.1
2016-May-18 07:33S 02°33' W 044°23'2 1.8
2016-May-18 06:30S 02°35' W 044°22'0 0.0
2016-May-16 15:21S 02°35' W 044°22'1 0.7
2016-May-16 14:33S 02°35' W 044°22'7 6.9
2016-May-16 13:33S 02°28' W 044°22'5 5.0
2016-May-16 12:33S 02°24' W 044°20'0 0.4
2016-May-16 11:29S 02°23' W 044°20'0 0.0
2016-May-16 10:29S 02°23' W 044°20'0 0.0
2016-May-16 09:23S 02°23' W 044°20'0 0.1
2016-May-16 08:20S 02°23' W 044°20'0 0.2
2016-May-16 07:32S 02°23' W 044°20'0 0.0
2016-May-16 06:29S 02°23' W 044°20'0 0.0
2016-May-16 05:32S 02°23' W 044°20'0 0.0
2016-May-16 04:29S 02°23' W 044°20'0 0.0
2016-May-16 03:32S 02°23' W 044°20'0 0.0
2016-May-16 02:32S 02°23' W 044°20'0 0.0
2016-May-16 01:29S 02°23' W 044°20'0 0.2
2016-May-16 00:32S 02°23' W 044°20'0 0.1
2016-May-15 23:23S 02°23' W 044°20'0 0.0
2016-May-15 22:29S 02°23' W 044°20'0 0.0
2016-May-15 21:29S 02°23' W 044°20'0 0.0
2016-May-15 20:32S 02°23' W 044°20'0 0.1
2016-May-15 19:26S 02°23' W 044°20'0 0.2
2016-May-15 18:29S 02°23' W 044°20'0 0.0
2016-May-15 17:29S 02°23' W 044°20'0 0.0
2016-May-15 16:32S 02°23' W 044°20'0 0.0
2016-May-15 15:29S 02°23' W 044°20'0 0.1
2016-May-15 14:29S 02°23' W 044°20'0 0.1
2016-May-15 13:32S 02°23' W 044°20'0 0.1
2016-May-15 12:32S 02°23' W 044°20'0 0.1
2016-May-15 11:29S 02°23' W 044°20'0 0.0
2016-May-15 10:20S 02°23' W 044°20'0 0.0
2016-May-15 09:32S 02°23' W 044°20'0 0.1
2016-May-15 08:32S 02°23' W 044°20'0 0.1
2016-May-15 07:23S 02°23' W 044°20'0 0.2
2016-May-15 06:29S 02°23' W 044°20'0 0.0
2016-May-15 05:32S 02°23' W 044°20'0 0.0
2016-May-15 04:23S 02°23' W 044°20'0 0.0
2016-May-15 03:29S 02°23' W 044°20'0 0.0
2016-May-15 02:32S 02°23' W 044°20'0 0.0
2016-May-15 01:32S 02°23' W 044°20'0 0.0
2016-May-15 00:32S 02°23' W 044°20'0 0.2
2016-May-14 23:29S 02°23' W 044°20'0 0.1
2016-May-14 22:32S 02°23' W 044°20'0 0.0
2016-May-14 21:32S 02°23' W 044°20'0 0.0
2016-May-14 20:26S 02°23' W 044°20'0 0.1
2016-May-14 19:32S 02°23' W 044°20'0 0.2
2016-May-14 18:29S 02°23' W 044°20'0 0.1
2016-May-14 17:29S 02°23' W 044°20'0 0.0
2016-May-14 16:32S 02°23' W 044°20'0 0.0
2016-May-14 15:29S 02°23' W 044°20'0 0.0
2016-May-14 14:32S 02°23' W 044°20'0 0.0
2016-May-14 13:32S 02°23' W 044°20'0 0.1
2016-May-14 12:32S 02°23' W 044°20'0 0.1
2016-May-14 11:32S 02°23' W 044°20'0 0.1
2016-May-14 10:26S 02°23' W 044°20'0 0.0
2016-May-14 09:29S 02°23' W 044°20'0 0.0
2016-May-14 08:32S 02°23' W 044°20'0 0.0
2016-May-14 07:32S 02°23' W 044°20'0 0.1
2016-May-14 06:32S 02°23' W 044°20'0 0.2
2016-May-14 05:32S 02°23' W 044°20'0 0.1
2016-May-14 04:32S 02°23' W 044°20'0 0.0
2016-May-14 03:29S 02°23' W 044°20'0 0.0
2016-May-14 02:29S 02°23' W 044°20'0 0.0
2016-May-14 01:29S 02°23' W 044°20'0 0.0
2016-May-14 00:23S 02°23' W 044°20'0 0.0
2016-May-13 23:32S 02°23' W 044°20'0 0.2
2016-May-13 22:32S 02°23' W 044°20'0 0.0
2016-May-13 21:32S 02°23' W 044°20'0 0.0
2016-May-13 20:23S 02°23' W 044°20'0 0.0
2016-May-13 19:32S 02°23' W 044°20'0 0.1
2016-May-13 18:29S 02°23' W 044°20'0 0.2
2016-May-13 17:29S 02°23' W 044°20'0 0.1
2016-May-13 16:26S 02°23' W 044°20'0 0.0
2016-May-13 15:32S 02°23' W 044°20'0 0.0
2016-May-13 14:29S 02°23' W 044°20'0 0.0
2016-May-13 13:32S 02°23' W 044°20'0 0.0
2016-May-13 12:32S 02°23' W 044°20'0 0.0
2016-May-13 11:32S 02°23' W 044°20'0 0.0
2016-May-13 10:32S 02°23' W 044°20'0 0.2
2016-May-13 09:32S 02°23' W 044°20'0 0.0
2016-May-13 08:32S 02°23' W 044°20'0 0.0
2016-May-13 07:29S 02°23' W 044°20'0 0.0
2016-May-13 06:32S 02°23' W 044°20'0 0.0
2016-May-13 05:29S 02°23' W 044°20'0 0.3
2016-May-13 04:32S 02°23' W 044°21'0 0.0
2016-May-13 03:29S 02°23' W 044°21'0 0.0
2016-May-13 02:32S 02°23' W 044°20'0 0.0
2016-May-13 01:23S 02°23' W 044°20'0 0.0
2016-May-13 00:26S 02°23' W 044°20'0 0.0
2016-May-12 23:29S 02°23' W 044°20'0 0.1
2016-May-12 22:33S 02°23' W 044°21'0 0.2
2016-May-12 21:33S 02°23' W 044°20'5 5.0
2016-May-12 20:34S 02°19' W 044°17'1110.4
2016-May-12 19:28S 02°10' W 044°11'  

Dump ship's entire track history